Time,TemperatureF,DewpointF,PressureIn,WindDirection,WindDirectionDegrees,WindSpeedMPH,WindSpeedGustMPH,Humidity,HourlyPrecipIn,Conditions,Clouds,dailyrainin,SoftwareType,DateUTC
2013-01-31 00:00:00,36.2,32.4,30.08,North,0,0.0,0.0,86,0.00,,,0.00,Wunderground v.1.12,2013-01-31 07:00:00,
2013-01-31 00:05:00,36.2,32.1,30.08,North,0,0.0,0.0,85,0.00,,,0.00,Wunderground v.1.12,2013-01-31 07:05:00,
2013-01-31 00:10:00,36.1,32.3,30.08,North,0,0.0,0.0,86,0.00,,,0.00,Wunderground v.1.12,2013-01-31 07:10:00,
2013-01-31 00:15:00,36.3,32.2,30.09,North,0,0.0,0.0,85,0.00,,,0.00,Wunderground v.1.12,2013-01-31 07:15:00,
2013-01-31 00:25:00,36.2,32.1,30.09,North,0,0.0,0.0,85,0.00,,,0.00,Wunderground v.1.12,2013-01-31 07:25:00,
2013-01-31 00:30:00,36.2,32.1,30.09,North,0,0.0,0.0,85,0.00,,,0.00,Wunderground v.1.12,2013-01-31 07:30:00,
2013-01-31 00:35:00,36.0,31.9,30.09,North,0,0.0,0.0,85,0.00,,,0.00,Wunderground v.1.12,2013-01-31 07:35:00,
2013-01-31 00:40:00,36.3,32.2,30.09,North,0,0.0,0.0,85,0.00,,,0.00,Wunderground v.1.12,2013-01-31 07:40:00,
2013-01-31 00:45:00,36.3,32.2,30.09,North,0,0.0,0.0,85,0.00,,,0.00,Wunderground v.1.12,2013-01-31 07:45:00,
2013-01-31 00:55:00,36.2,32.1,30.10,North,0,0.0,0.0,85,0.00,,,0.00,Wunderground v.1.12,2013-01-31 07:55:00,
2013-01-31 01:00:00,36.1,32.0,30.09,North,0,0.0,0.0,85,0.00,,,0.00,Wunderground v.1.12,2013-01-31 08:00:00,
2013-01-31 01:05:00,36.3,32.2,30.09,North,0,0.0,0.0,85,0.00,,,0.00,Wunderground v.1.12,2013-01-31 08:05:00,
2013-01-31 01:10:00,36.2,32.4,30.09,North,0,0.0,0.0,86,0.00,,,0.00,Wunderground v.1.12,2013-01-31 08:10:00,
2013-01-31 01:15:00,36.0,32.2,30.09,North,0,0.0,0.0,86,0.00,,,0.00,Wunderground v.1.12,2013-01-31 08:15:00,
2013-01-31 01:20:00,36.1,32.0,30.09,North,0,0.0,0.0,85,0.00,,,0.00,Wunderground v.1.12,2013-01-31 08:20:00,
2013-01-31 01:25:00,36.4,32.6,30.10,North,0,0.0,0.0,86,0.00,,,0.00,Wunderground v.1.12,2013-01-31 08:25:00,
2013-01-31 01:30:00,36.3,32.5,30.10,North,0,0.0,0.0,86,0.00,,,0.00,Wunderground v.1.12,2013-01-31 08:30:00,
2013-01-31 01:35:00,36.1,32.0,30.10,North,0,0.0,0.0,85,0.00,,,0.00,Wunderground v.1.12,2013-01-31 08:35:00,
2013-01-31 01:40:00,36.2,32.4,30.10,North,0,0.0,0.0,86,0.00,,,0.00,Wunderground v.1.12,2013-01-31 08:40:00,
2013-01-31 01:50:00,36.2,32.4,30.10,North,0,0.0,0.0,86,0.00,,,0.00,Wunderground v.1.12,2013-01-31 08:50:00,
2013-01-31 02:00:00,36.3,32.5,30.11,North,0,0.0,0.0,86,0.00,,,0.00,Wunderground v.1.12,2013-01-31 09:00:00,
2013-01-31 02:05:00,36.2,32.4,30.12,North,0,0.0,0.0,86,0.00,,,0.00,Wunderground v.1.12,2013-01-31 09:05:00,
2013-01-31 02:10:00,36.0,32.2,30.12,North,0,0.0,0.0,86,0.00,,,0.00,Wunderground v.1.12,2013-01-31 09:10:00,
2013-01-31 02:15:00,35.9,32.4,30.11,North,0,0.0,0.0,87,0.00,,,0.00,Wunderground v.1.12,2013-01-31 09:15:00,
2013-01-31 02:20:00,35.8,32.0,30.11,North,0,0.0,0.0,86,0.00,,,0.00,Wunderground v.1.12,2013-01-31 09:20:00,
2013-01-31 02:30:00,35.7,32.2,30.12,North,0,0.0,0.0,87,0.00,,,0.00,Wunderground v.1.12,2013-01-31 09:30:00,
2013-01-31 02:35:00,35.7,32.2,30.12,North,0,0.0,0.0,87,0.00,,,0.00,Wunderground v.1.12,2013-01-31 09:35:00,
2013-01-31 02:40:00,35.6,32.4,30.11,North,0,0.0,0.0,88,0.00,,,0.00,Wunderground v.1.12,2013-01-31 09:40:00,
2013-01-31 02:45:00,35.4,32.2,30.12,North,0,0.0,0.0,88,0.00,,,0.00,Wunderground v.1.12,2013-01-31 09:45:00,
2013-01-31 02:50:00,35.6,32.4,30.12,North,0,0.0,0.0,88,0.00,,,0.00,Wunderground v.1.12,2013-01-31 09:50:00,
2013-01-31 02:55:00,35.4,32.2,30.12,North,0,0.0,0.0,88,0.00,,,0.00,Wunderground v.1.12,2013-01-31 09:55:00,
2013-01-31 03:05:00,35.3,32.1,30.12,North,0,0.0,0.0,88,0.00,,,0.00,Wunderground v.1.12,2013-01-31 10:05:00,
2013-01-31 03:10:00,35.5,32.3,30.12,North,0,0.0,0.0,88,0.00,,,0.00,Wunderground v.1.12,2013-01-31 10:10:00,
2013-01-31 03:15:00,35.3,32.4,30.12,North,0,0.0,0.0,89,0.00,,,0.00,Wunderground v.1.12,2013-01-31 10:15:00,
2013-01-31 03:20:00,35.5,32.6,30.12,North,0,0.0,0.0,89,0.00,,,0.00,Wunderground v.1.12,2013-01-31 10:20:00,
2013-01-31 03:25:00,35.6,32.7,30.12,North,0,0.0,0.0,89,0.00,,,0.00,Wunderground v.1.12,2013-01-31 10:25:00,
2013-01-31 03:30:00,35.7,32.8,30.12,North,0,0.0,0.0,89,0.00,,,0.00,Wunderground v.1.12,2013-01-31 10:30:00,
2013-01-31 03:35:00,35.4,32.5,30.12,North,0,0.0,0.0,89,0.00,,,0.00,Wunderground v.1.12,2013-01-31 10:35:00,
2013-01-31 03:40:00,35.3,32.4,30.12,NE,55,0.0,0.0,89,0.00,,,0.00,Wunderground v.1.12,2013-01-31 10:40:00,
2013-01-31 03:45:00,35.5,32.6,30.11,NE,53,0.0,0.0,89,0.00,,,0.00,Wunderground v.1.12,2013-01-31 10:45:00,
2013-01-31 03:50:00,35.3,32.4,30.11,North,0,0.0,0.0,89,0.00,,,0.00,Wunderground v.1.12,2013-01-31 10:50:00,
2013-01-31 03:55:00,35.4,32.5,30.11,North,0,0.0,0.0,89,0.00,,,0.00,Wunderground v.1.12,2013-01-31 10:55:00,
2013-01-31 04:05:00,35.7,32.8,30.12,North,0,0.0,0.0,89,0.00,,,0.00,Wunderground v.1.12,2013-01-31 11:05:00,
2013-01-31 04:10:00,35.3,32.4,30.12,North,0,0.0,0.0,89,0.00,,,0.00,Wunderground v.1.12,2013-01-31 11:10:00,
2013-01-31 04:15:00,35.4,32.5,30.12,North,0,0.0,0.0,89,0.00,,,0.00,Wunderground v.1.12,2013-01-31 11:15:00,
2013-01-31 04:20:00,35.3,32.7,30.12,North,0,0.0,0.0,90,0.00,,,0.00,Wunderground v.1.12,2013-01-31 11:20:00,
2013-01-31 04:25:00,35.5,32.6,30.12,North,0,0.0,0.0,89,0.00,,,0.00,Wunderground v.1.12,2013-01-31 11:25:00,
2013-01-31 04:30:00,35.5,32.6,30.12,North,0,0.0,0.0,89,0.00,,,0.00,Wunderground v.1.12,2013-01-31 11:30:00,
2013-01-31 04:35:00,35.4,32.8,30.12,North,0,0.0,0.0,90,0.00,,,0.00,Wunderground v.1.12,2013-01-31 11:35:00,
2013-01-31 04:45:00,35.1,32.5,30.12,North,0,0.0,0.0,90,0.00,,,0.00,Wunderground v.1.12,2013-01-31 11:45:00,
2013-01-31 04:50:00,35.4,32.8,30.13,North,0,0.0,0.0,90,0.00,,,0.00,Wunderground v.1.12,2013-01-31 11:50:00,
2013-01-31 04:55:00,35.4,32.8,30.12,North,0,0.0,0.0,90,0.00,,,0.00,Wunderground v.1.12,2013-01-31 11:55:00,
2013-01-31 05:05:00,35.3,32.7,30.12,North,0,0.0,0.0,90,0.00,,,0.00,Wunderground v.1.12,2013-01-31 12:05:00,
2013-01-31 05:10:00,35.3,32.7,30.12,North,0,0.0,0.0,90,0.00,,,0.00,Wunderground v.1.12,2013-01-31 12:10:00,
2013-01-31 05:15:00,35.3,32.7,30.12,North,0,0.0,0.0,90,0.00,,,0.00,Wunderground v.1.12,2013-01-31 12:15:00,
2013-01-31 05:20:00,35.0,32.4,30.12,North,0,0.0,0.0,90,0.00,,,0.00,Wunderground v.1.12,2013-01-31 12:20:00,
2013-01-31 05:25:00,35.3,32.7,30.13,North,0,0.0,0.0,90,0.00,,,0.00,Wunderground v.1.12,2013-01-31 12:25:00,
2013-01-31 05:30:00,35.5,32.9,30.13,North,0,0.0,0.0,90,0.00,,,0.00,Wunderground v.1.12,2013-01-31 12:30:00,
2013-01-31 05:40:00,35.2,32.6,30.12,North,0,0.0,0.0,90,0.00,,,0.00,Wunderground v.1.12,2013-01-31 12:40:00,
2013-01-31 05:50:00,35.1,32.7,30.12,North,0,0.0,0.0,91,0.00,,,0.00,Wunderground v.1.12,2013-01-31 12:50:00,
2013-01-31 05:55:00,35.1,32.7,30.12,North,0,0.0,0.0,91,0.00,,,0.00,Wunderground v.1.12,2013-01-31 12:55:00,
2013-01-31 06:00:00,35.1,32.7,30.12,North,0,0.0,0.0,91,0.00,,,0.00,Wunderground v.1.12,2013-01-31 13:00:00,
2013-01-31 06:05:00,35.1,32.7,30.12,North,0,0.0,0.0,91,0.00,,,0.00,Wunderground v.1.12,2013-01-31 13:05:00,
2013-01-31 06:15:00,35.1,32.7,30.13,North,0,0.0,0.0,91,0.00,,,0.00,Wunderground v.1.12,2013-01-31 13:15:00,
2013-01-31 06:20:00,35.0,32.6,30.12,North,0,0.0,0.0,91,0.00,,,0.00,Wunderground v.1.12,2013-01-31 13:20:00,
2013-01-31 06:25:00,34.9,32.5,30.12,North,0,0.0,0.0,91,0.00,,,0.00,Wunderground v.1.12,2013-01-31 13:25:00,
2013-01-31 06:30:00,34.7,32.3,30.12,North,0,0.0,0.0,91,0.00,,,0.00,Wunderground v.1.12,2013-01-31 13:30:00,
2013-01-31 06:35:00,34.8,32.4,30.12,North,0,0.0,0.0,91,0.00,,,0.00,Wunderground v.1.12,2013-01-31 13:35:00,
2013-01-31 06:45:00,35.0,32.6,30.12,North,0,0.0,0.0,91,0.00,,,0.00,Wunderground v.1.12,2013-01-31 13:45:00,
2013-01-31 06:50:00,35.1,32.7,30.13,North,0,0.0,0.0,91,0.00,,,0.00,Wunderground v.1.12,2013-01-31 13:50:00,
2013-01-31 06:55:00,34.9,32.5,30.12,North,0,0.0,0.0,91,0.00,,,0.00,Wunderground v.1.12,2013-01-31 13:55:00,
2013-01-31 07:00:00,34.6,32.2,30.12,North,0,0.0,0.0,91,0.00,,,0.00,Wunderground v.1.12,2013-01-31 14:00:00,
2013-01-31 07:05:00,34.9,32.5,30.12,North,0,0.0,0.0,91,0.00,,,0.00,Wunderground v.1.12,2013-01-31 14:05:00,
2013-01-31 07:15:00,34.8,32.2,30.12,North,0,0.0,0.0,90,0.00,,,0.00,Wunderground v.1.12,2013-01-31 14:15:00,
2013-01-31 07:20:00,35.1,32.5,30.12,North,0,0.0,0.0,90,0.00,,,0.00,Wunderground v.1.12,2013-01-31 14:20:00,
2013-01-31 07:25:00,35.2,32.6,30.12,North,0,0.0,0.0,90,0.00,,,0.00,Wunderground v.1.12,2013-01-31 14:25:00,
2013-01-31 07:30:00,35.2,32.6,30.12,North,0,0.0,0.0,90,0.00,,,0.00,Wunderground v.1.12,2013-01-31 14:30:00,
2013-01-31 07:35:00,35.2,32.6,30.12,North,0,0.0,0.0,90,0.00,,,0.00,Wunderground v.1.12,2013-01-31 14:35:00,
2013-01-31 07:40:00,35.2,32.3,30.12,North,0,0.0,0.0,89,0.00,,,0.00,Wunderground v.1.12,2013-01-31 14:40:00,
2013-01-31 07:45:00,35.3,32.4,30.13,North,0,0.0,0.0,89,0.00,,,0.00,Wunderground v.1.12,2013-01-31 14:45:00,
2013-01-31 07:50:00,35.3,32.4,30.13,North,0,0.0,0.0,89,0.00,,,0.00,Wunderground v.1.12,2013-01-31 14:50:00,
2013-01-31 07:55:00,35.4,32.5,30.13,North,0,0.0,0.0,89,0.00,,,0.00,Wunderground v.1.12,2013-01-31 14:55:00,
2013-01-31 08:00:00,35.3,32.7,30.13,North,0,0.0,0.0,90,0.00,,,0.00,Wunderground v.1.12,2013-01-31 15:00:00,
2013-01-31 08:05:00,35.7,33.1,30.14,North,0,0.0,0.0,90,0.00,,,0.00,Wunderground v.1.12,2013-01-31 15:05:00,
2013-01-31 08:10:00,35.8,33.2,30.14,North,0,0.0,0.0,90,0.00,,,0.00,Wunderground v.1.12,2013-01-31 15:10:00,
2013-01-31 08:20:00,35.6,33.0,30.14,ENE,78,0.0,0.0,90,0.00,,,0.00,Wunderground v.1.12,2013-01-31 15:20:00,
2013-01-31 08:25:00,35.2,32.6,30.14,East,83,0.0,0.0,90,0.00,,,0.00,Wunderground v.1.12,2013-01-31 15:25:00,
2013-01-31 08:30:00,35.5,32.9,30.14,East,83,0.0,0.0,90,0.00,,,0.00,Wunderground v.1.12,2013-01-31 15:30:00,
2013-01-31 08:35:00,35.4,32.8,30.14,North,0,0.0,0.0,90,0.00,,,0.00,Wunderground v.1.12,2013-01-31 15:35:00,
2013-01-31 08:40:00,35.5,33.1,30.14,North,0,0.0,0.0,91,0.00,,,0.00,Wunderground v.1.12,2013-01-31 15:40:00,
2013-01-31 08:50:00,35.3,33.2,30.14,North,0,0.0,0.0,92,0.00,,,0.00,Wunderground v.1.12,2013-01-31 15:50:00,
2013-01-31 08:55:00,35.5,33.7,30.15,North,0,0.0,0.0,93,0.00,,,0.00,Wunderground v.1.12,2013-01-31 15:55:00,
2013-01-31 09:00:00,35.4,33.6,30.14,North,0,0.0,0.0,93,0.00,,,0.00,Wunderground v.1.12,2013-01-31 16:00:00,
2013-01-31 09:05:00,35.5,33.9,30.14,North,0,0.0,0.0,94,0.00,,,0.00,Wunderground v.1.12,2013-01-31 16:05:00,
2013-01-31 09:10:00,35.7,34.1,30.14,North,0,0.0,0.0,94,0.00,,,0.00,Wunderground v.1.12,2013-01-31 16:10:00,
2013-01-31 09:15:00,35.5,34.2,30.14,North,0,0.0,0.0,95,0.00,,,0.00,Wunderground v.1.12,2013-01-31 16:15:00,
2013-01-31 09:25:00,35.6,34.3,30.14,North,0,0.0,0.0,95,0.00,,,0.00,Wunderground v.1.12,2013-01-31 16:25:00,
2013-01-31 09:50:00,35.9,34.6,30.15,North,0,0.0,0.0,95,0.00,,,0.00,Wunderground v.1.12,2013-01-31 16:50:00,
2013-01-31 09:55:00,35.9,34.6,30.15,North,0,0.0,0.0,95,0.00,,,0.00,Wunderground v.1.12,2013-01-31 16:55:00,
2013-01-31 10:05:00,36.3,34.7,30.15,North,0,0.0,0.0,94,0.00,,,0.00,Wunderground v.1.12,2013-01-31 17:05:00,
2013-01-31 10:10:00,36.2,34.6,30.16,North,0,0.0,0.0,94,0.00,,,0.00,Wunderground v.1.12,2013-01-31 17:10:00,
2013-01-31 10:25:00,36.6,35.0,30.15,North,0,0.0,0.0,94,0.00,,,0.00,Wunderground v.1.12,2013-01-31 17:25:00,
2013-01-31 10:30:00,36.7,35.1,30.15,North,0,0.0,0.0,94,0.00,,,0.00,Wunderground v.1.12,2013-01-31 17:30:00,
2013-01-31 10:35:00,36.9,35.1,30.15,North,0,0.0,0.0,93,0.00,,,0.00,Wunderground v.1.12,2013-01-31 17:35:00,
2013-01-31 10:45:00,36.9,35.1,30.15,North,0,0.0,0.0,93,0.00,,,0.00,Wunderground v.1.12,2013-01-31 17:45:00,
2013-01-31 10:50:00,37.4,35.3,30.15,North,0,0.0,0.0,92,0.00,,,0.00,Wunderground v.1.12,2013-01-31 17:50:00,
2013-01-31 10:55:00,37.4,35.0,30.16,North,0,0.0,0.0,91,0.00,,,0.00,Wunderground v.1.12,2013-01-31 17:55:00,
2013-01-31 11:00:00,37.4,35.0,30.15,North,0,0.0,0.0,91,0.00,,,0.00,Wunderground v.1.12,2013-01-31 18:00:00,
2013-01-31 11:05:00,37.8,35.4,30.15,North,0,0.0,0.0,91,0.00,,,0.00,Wunderground v.1.12,2013-01-31 18:05:00,
2013-01-31 11:10:00,37.8,35.4,30.15,North,0,0.0,0.0,91,0.00,,,0.00,Wunderground v.1.12,2013-01-31 18:10:00,
2013-01-31 11:15:00,37.9,35.5,30.15,North,0,0.0,0.0,91,0.00,,,0.00,Wunderground v.1.12,2013-01-31 18:15:00,
2013-01-31 11:20:00,38.1,35.4,30.15,North,0,0.0,0.0,90,0.00,,,0.00,Wunderground v.1.12,2013-01-31 18:20:00,
2013-01-31 11:25:00,38.3,35.6,30.16,North,0,0.0,0.0,90,0.00,,,0.00,Wunderground v.1.12,2013-01-31 18:25:00,
2013-01-31 11:30:00,38.2,35.5,30.16,North,0,0.0,0.0,90,0.00,,,0.00,Wunderground v.1.12,2013-01-31 18:30:00,
2013-01-31 11:35:00,38.1,35.4,30.15,North,0,0.0,0.0,90,0.00,,,0.00,Wunderground v.1.12,2013-01-31 18:35:00,
2013-01-31 11:45:00,37.9,35.2,30.15,North,0,0.0,0.0,90,0.00,,,0.00,Wunderground v.1.12,2013-01-31 18:45:00,
2013-01-31 11:50:00,37.9,35.5,30.15,North,0,0.0,0.0,91,0.00,,,0.00,Wunderground v.1.12,2013-01-31 18:50:00,
2013-01-31 11:55:00,37.9,35.2,30.15,North,0,0.0,0.0,90,0.00,,,0.00,Wunderground v.1.12,2013-01-31 18:55:00,
2013-01-31 12:05:00,38.0,35.3,30.16,NW,315,0.0,3.0,90,0.00,,,0.00,Wunderground v.1.12,2013-01-31 19:05:00,
2013-01-31 12:15:00,38.5,35.5,30.15,North,356,0.0,0.0,89,0.00,,,0.00,Wunderground v.1.12,2013-01-31 19:15:00,
2013-01-31 12:25:00,38.7,35.7,30.14,North,0,1.0,1.0,89,0.00,,,0.00,Wunderground v.1.12,2013-01-31 19:25:00,
2013-01-31 12:30:00,38.9,35.6,30.14,North,0,0.0,0.0,88,0.00,,,0.00,Wunderground v.1.12,2013-01-31 19:30:00,
2013-01-31 12:35:00,38.9,35.6,30.14,North,0,0.0,0.0,88,0.00,,,0.00,Wunderground v.1.12,2013-01-31 19:35:00,
2013-01-31 12:40:00,38.9,35.6,30.13,North,359,0.0,0.0,88,0.00,,,0.00,Wunderground v.1.12,2013-01-31 19:40:00,
2013-01-31 12:45:00,38.8,35.6,30.13,North,0,0.0,0.0,88,0.00,,,0.00,Wunderground v.1.12,2013-01-31 19:45:00,
2013-01-31 12:50:00,39.3,36.0,30.13,North,0,0.0,0.0,88,0.00,,,0.00,Wunderground v.1.12,2013-01-31 19:50:00,
2013-01-31 12:55:00,39.1,35.8,30.13,North,0,0.0,0.0,88,0.00,,,0.00,Wunderground v.1.12,2013-01-31 19:55:00,
2013-01-31 13:00:00,39.2,35.9,30.13,North,0,0.0,0.0,88,0.00,,,0.00,Wunderground v.1.12,2013-01-31 20:00:00,
2013-01-31 13:05:00,39.3,36.0,30.13,North,0,0.0,0.0,88,0.00,,,0.00,Wunderground v.1.12,2013-01-31 20:05:00,
2013-01-31 13:15:00,39.6,35.8,30.13,N/A,-737280,0.0,3.0,86,0.00,,,0.00,Wunderground v.1.12,2013-01-31 20:15:00,
2013-01-31 13:25:00,39.9,36.3,30.13,North,0,0.0,0.0,87,0.00,,,0.00,Wunderground v.1.12,2013-01-31 20:25:00,
2013-01-31 13:35:00,40.0,36.2,30.12,North,0,0.0,0.0,86,0.00,,,0.00,Wunderground v.1.12,2013-01-31 20:35:00,
2013-01-31 13:45:00,40.3,36.4,30.12,North,0,0.0,0.0,86,0.00,,,0.00,Wunderground v.1.12,2013-01-31 20:45:00,
2013-01-31 13:50:00,40.6,36.4,30.12,SSW,202,0.0,0.0,85,0.00,,,0.00,Wunderground v.1.12,2013-01-31 20:50:00,
2013-01-31 13:55:00,40.7,36.2,30.12,South,190,0.0,0.0,84,0.00,,,0.00,Wunderground v.1.12,2013-01-31 20:55:00,
2013-01-31 14:00:00,40.9,36.4,30.12,North,0,0.0,0.0,84,0.00,,,0.00,Wunderground v.1.12,2013-01-31 21:00:00,
2013-01-31 14:10:00,40.9,36.4,30.12,WNW,294,0.0,0.0,84,0.00,,,0.00,Wunderground v.1.12,2013-01-31 21:10:00,
2013-01-31 14:15:00,41.3,36.8,30.13,North,0,0.0,0.0,84,0.00,,,0.00,Wunderground v.1.12,2013-01-31 21:15:00,
2013-01-31 14:20:00,41.0,36.8,30.12,North,0,0.0,0.0,85,0.00,,,0.00,Wunderground v.1.12,2013-01-31 21:20:00,
2013-01-31 14:25:00,41.1,36.9,30.12,North,0,0.0,0.0,85,0.00,,,0.00,Wunderground v.1.12,2013-01-31 21:25:00,
2013-01-31 14:30:00,41.2,37.0,30.11,North,0,0.0,0.0,85,0.00,,,0.00,Wunderground v.1.12,2013-01-31 21:30:00,
2013-01-31 14:35:00,41.2,37.0,30.12,North,0,0.0,0.0,85,0.00,,,0.00,Wunderground v.1.12,2013-01-31 21:35:00,
2013-01-31 14:45:00,41.4,36.9,30.12,East,93,0.0,0.0,84,0.00,,,0.00,Wunderground v.1.12,2013-01-31 21:45:00,
2013-01-31 14:55:00,41.7,37.2,30.12,West,263,0.0,0.0,84,0.00,,,0.00,Wunderground v.1.12,2013-01-31 21:55:00,
2013-01-31 15:00:00,41.4,36.9,30.12,SSW,209,0.0,0.0,84,0.00,,,0.00,Wunderground v.1.12,2013-01-31 22:00:00,
2013-01-31 15:05:00,41.3,36.5,30.12,North,0,0.0,0.0,83,0.00,,,0.00,Wunderground v.1.12,2013-01-31 22:05:00,
2013-01-31 15:10:00,41.3,36.5,30.12,North,0,0.0,0.0,83,0.00,,,0.00,Wunderground v.1.12,2013-01-31 22:10:00,
2013-01-31 15:15:00,41.0,36.5,30.12,North,0,0.0,0.0,84,0.00,,,0.00,Wunderground v.1.12,2013-01-31 22:15:00,
2013-01-31 15:20:00,41.2,36.7,30.12,North,0,0.0,0.0,84,0.00,,,0.00,Wunderground v.1.12,2013-01-31 22:20:00,
2013-01-31 15:25:00,41.2,36.7,30.12,North,0,0.0,0.0,84,0.00,,,0.00,Wunderground v.1.12,2013-01-31 22:25:00,
2013-01-31 15:30:00,41.0,36.5,30.12,North,0,0.0,0.0,84,0.00,,,0.00,Wunderground v.1.12,2013-01-31 22:30:00,
2013-01-31 15:35:00,40.7,36.2,30.11,North,0,0.0,0.0,84,0.00,,,0.00,Wunderground v.1.12,2013-01-31 22:35:00,
2013-01-31 15:40:00,40.3,35.8,30.11,North,5,0.0,0.0,84,0.00,,,0.00,Wunderground v.1.12,2013-01-31 22:40:00,
2013-01-31 15:50:00,40.6,36.4,30.11,North,0,0.0,0.0,85,0.00,,,0.00,Wunderground v.1.12,2013-01-31 22:50:00,
2013-01-31 15:55:00,40.4,36.2,30.11,North,0,0.0,0.0,85,0.00,,,0.00,Wunderground v.1.12,2013-01-31 22:55:00,
2013-01-31 16:00:00,40.1,36.0,30.11,North,0,0.0,0.0,85,0.00,,,0.00,Wunderground v.1.12,2013-01-31 23:00:00,
2013-01-31 16:05:00,40.1,36.0,30.11,North,0,0.0,0.0,85,0.00,,,0.00,Wunderground v.1.12,2013-01-31 23:05:00,
2013-01-31 16:10:00,40.0,35.9,30.11,North,0,0.0,0.0,85,0.00,,,0.00,Wunderground v.1.12,2013-01-31 23:10:00,
2013-01-31 16:20:00,39.7,35.6,30.11,North,0,0.0,0.0,85,0.00,,,0.00,Wunderground v.1.12,2013-01-31 23:20:00,
2013-01-31 16:25:00,39.7,35.6,30.11,North,0,0.0,0.0,85,0.00,,,0.00,Wunderground v.1.12,2013-01-31 23:25:00,
2013-01-31 16:30:00,39.7,35.6,30.11,North,0,0.0,0.0,85,0.00,,,0.00,Wunderground v.1.12,2013-01-31 23:30:00,
2013-01-31 16:35:00,39.8,35.7,30.11,North,0,0.0,0.0,85,0.00,,,0.00,Wunderground v.1.12,2013-01-31 23:35:00,
2013-01-31 16:40:00,39.4,35.3,30.11,North,0,0.0,0.0,85,0.00,,,0.00,Wunderground v.1.12,2013-01-31 23:40:00,
2013-01-31 16:45:00,39.4,35.3,30.10,North,0,0.0,0.0,85,0.00,,,0.00,Wunderground v.1.12,2013-01-31 23:45:00,
2013-01-31 16:55:00,39.1,35.3,30.11,North,6,0.0,0.0,86,0.00,,,0.00,Wunderground v.1.12,2013-01-31 23:55:00,
2013-01-31 17:00:00,39.0,34.9,30.10,North,0,0.0,0.0,85,0.00,,,0.00,Wunderground v.1.12,2013-02-01 00:00:00,
2013-01-31 17:05:00,39.0,34.9,30.11,North,0,0.0,0.0,85,0.00,,,0.00,Wunderground v.1.12,2013-02-01 00:05:00,
2013-01-31 17:10:00,39.0,35.2,30.11,North,0,0.0,0.0,86,0.00,,,0.00,Wunderground v.1.12,2013-02-01 00:10:00,
2013-01-31 17:15:00,38.8,35.0,30.11,North,0,0.0,0.0,86,0.00,,,0.00,Wunderground v.1.12,2013-02-01 00:15:00,
2013-01-31 17:25:00,38.6,35.1,30.10,North,0,0.0,0.0,87,0.00,,,0.00,Wunderground v.1.12,2013-02-01 00:25:00,
2013-01-31 17:30:00,38.4,34.9,30.11,North,0,0.0,0.0,87,0.00,,,0.00,Wunderground v.1.12,2013-02-01 00:30:00,
2013-01-31 17:35:00,38.4,34.9,30.11,North,0,0.0,0.0,87,0.00,,,0.00,Wunderground v.1.12,2013-02-01 00:35:00,
2013-01-31 17:40:00,38.4,34.9,30.10,North,0,0.0,0.0,87,0.00,,,0.00,Wunderground v.1.12,2013-02-01 00:40:00,
2013-01-31 17:45:00,38.3,34.8,30.10,North,0,0.0,0.0,87,0.00,,,0.00,Wunderground v.1.12,2013-02-01 00:45:00,
2013-01-31 17:50:00,38.1,34.6,30.10,North,0,0.0,0.0,87,0.00,,,0.00,Wunderground v.1.12,2013-02-01 00:50:00,
2013-01-31 18:00:00,38.2,34.7,30.10,North,0,0.0,0.0,87,0.00,,,0.00,Wunderground v.1.12,2013-02-01 01:00:00,
2013-01-31 18:05:00,38.1,34.9,30.10,North,0,0.0,0.0,88,0.00,,,0.00,Wunderground v.1.12,2013-02-01 01:05:00,
2013-01-31 18:10:00,38.3,35.1,30.10,North,0,0.0,0.0,88,0.00,,,0.00,Wunderground v.1.12,2013-02-01 01:10:00,
2013-01-31 18:15:00,38.3,35.1,30.10,North,0,0.0,0.0,88,0.00,,,0.00,Wunderground v.1.12,2013-02-01 01:15:00,
2013-01-31 18:20:00,38.1,34.9,30.10,North,0,0.0,0.0,88,0.00,,,0.00,Wunderground v.1.12,2013-02-01 01:20:00,
2013-01-31 18:25:00,38.0,35.0,30.09,North,0,0.0,0.0,89,0.00,,,0.00,Wunderground v.1.12,2013-02-01 01:25:00,
2013-01-31 18:30:00,37.8,34.8,30.10,North,0,0.0,0.0,89,0.00,,,0.00,Wunderground v.1.12,2013-02-01 01:30:00,
2013-01-31 18:35:00,37.8,35.1,30.10,North,0,0.0,0.0,90,0.00,,,0.00,Wunderground v.1.12,2013-02-01 01:35:00,
2013-01-31 18:40:00,37.8,34.8,30.09,North,0,0.0,0.0,89,0.00,,,0.00,Wunderground v.1.12,2013-02-01 01:40:00,
2013-01-31 18:45:00,37.8,34.8,30.09,North,0,0.0,0.0,89,0.00,,,0.00,Wunderground v.1.12,2013-02-01 01:45:00,
2013-01-31 18:50:00,37.6,35.2,30.10,North,2,0.0,0.0,91,0.00,,,0.00,Wunderground v.1.12,2013-02-01 01:50:00,
2013-01-31 19:00:00,37.3,34.9,30.09,North,0,0.0,0.0,91,0.00,,,0.00,Wunderground v.1.12,2013-02-01 02:00:00,
2013-01-31 19:05:00,37.3,34.6,30.09,North,0,0.0,0.0,90,0.00,,,0.00,Wunderground v.1.12,2013-02-01 02:05:00,
2013-01-31 19:10:00,37.1,34.7,30.09,North,0,0.0,0.0,91,0.00,,,0.00,Wunderground v.1.12,2013-02-01 02:10:00,
2013-01-31 19:15:00,37.1,34.7,30.09,North,0,0.0,0.0,91,0.00,,,0.00,Wunderground v.1.12,2013-02-01 02:15:00,
2013-01-31 19:25:00,36.9,34.5,30.10,North,0,0.0,0.0,91,0.00,,,0.00,Wunderground v.1.12,2013-02-01 02:25:00,
2013-01-31 19:35:00,37.0,34.6,30.10,North,0,0.0,0.0,91,0.00,,,0.00,Wunderground v.1.12,2013-02-01 02:35:00,
2013-01-31 19:40:00,37.0,34.6,30.09,North,0,0.0,0.0,91,0.00,,,0.00,Wunderground v.1.12,2013-02-01 02:40:00,
2013-01-31 19:50:00,37.0,34.3,30.09,North,0,0.0,0.0,90,0.00,,,0.00,Wunderground v.1.12,2013-02-01 02:50:00,
2013-01-31 19:55:00,36.9,34.5,30.09,North,0,0.0,0.0,91,0.00,,,0.00,Wunderground v.1.12,2013-02-01 02:55:00,
2013-01-31 20:00:00,37.1,34.4,30.09,North,0,0.0,0.0,90,0.00,,,0.00,Wunderground v.1.12,2013-02-01 03:00:00,
2013-01-31 20:05:00,37.0,34.3,30.09,North,0,0.0,0.0,90,0.00,,,0.00,Wunderground v.1.12,2013-02-01 03:05:00,
2013-01-31 20:15:00,37.0,34.3,30.08,North,0,0.0,0.0,90,0.00,,,0.00,Wunderground v.1.12,2013-02-01 03:15:00,
2013-01-31 20:20:00,36.9,34.2,30.09,North,0,0.0,0.0,90,0.00,,,0.00,Wunderground v.1.12,2013-02-01 03:20:00,
2013-01-31 20:25:00,36.9,34.2,30.09,North,0,0.0,0.0,90,0.00,,,0.00,Wunderground v.1.12,2013-02-01 03:25:00,
2013-01-31 20:35:00,37.1,34.4,30.08,North,0,0.0,0.0,90,0.00,,,0.00,Wunderground v.1.12,2013-02-01 03:35:00,
2013-01-31 20:45:00,36.8,34.1,30.08,North,0,0.0,0.0,90,0.00,,,0.00,Wunderground v.1.12,2013-02-01 03:45:00,
2013-01-31 20:50:00,36.9,34.2,30.09,North,0,0.0,0.0,90,0.00,,,0.00,Wunderground v.1.12,2013-02-01 03:50:00,
2013-01-31 20:55:00,36.9,34.2,30.08,North,0,0.0,0.0,90,0.00,,,0.00,Wunderground v.1.12,2013-02-01 03:55:00,
2013-01-31 21:00:00,36.9,34.2,30.08,North,0,0.0,0.0,90,0.00,,,0.00,Wunderground v.1.12,2013-02-01 04:00:00,
2013-01-31 21:10:00,37.1,34.4,30.08,North,0,0.0,0.0,90,0.00,,,0.00,Wunderground v.1.12,2013-02-01 04:10:00,
2013-01-31 21:15:00,36.9,34.2,30.08,North,0,0.0,0.0,90,0.00,,,0.00,Wunderground v.1.12,2013-02-01 04:15:00,
2013-01-31 21:20:00,37.0,34.1,30.08,North,0,0.0,0.0,89,0.00,,,0.00,Wunderground v.1.12,2013-02-01 04:20:00,
2013-01-31 21:25:00,36.7,34.0,30.08,North,0,0.0,0.0,90,0.00,,,0.00,Wunderground v.1.12,2013-02-01 04:25:00,
2013-01-31 21:30:00,37.0,34.3,30.08,North,0,0.0,0.0,90,0.00,,,0.00,Wunderground v.1.12,2013-02-01 04:30:00,
2013-01-31 21:35:00,36.6,34.2,30.08,North,0,0.0,0.0,91,0.00,,,0.00,Wunderground v.1.12,2013-02-01 04:35:00,
2013-01-31 21:40:00,36.7,34.3,30.08,North,0,0.0,0.0,91,0.00,,,0.00,Wunderground v.1.12,2013-02-01 04:40:00,
2013-01-31 21:45:00,36.4,34.0,30.08,North,0,0.0,0.0,91,0.00,,,0.00,Wunderground v.1.12,2013-02-01 04:45:00,
2013-01-31 21:50:00,36.3,33.9,30.08,North,0,0.0,0.0,91,0.00,,,0.00,Wunderground v.1.12,2013-02-01 04:50:00,
2013-01-31 21:55:00,36.0,33.6,30.08,North,0,0.0,0.0,91,0.00,,,0.00,Wunderground v.1.12,2013-02-01 04:55:00,
2013-01-31 22:05:00,36.2,33.8,30.08,North,0,0.0,0.0,91,0.00,,,0.00,Wunderground v.1.12,2013-02-01 05:05:00,
2013-01-31 22:10:00,36.4,34.0,30.08,North,0,0.0,0.0,91,0.00,,,0.00,Wunderground v.1.12,2013-02-01 05:10:00,
2013-01-31 22:15:00,36.1,33.5,30.08,North,0,0.0,0.0,90,0.00,,,0.00,Wunderground v.1.12,2013-02-01 05:15:00,
2013-01-31 22:20:00,36.1,33.5,30.08,North,0,0.0,0.0,90,0.00,,,0.00,Wunderground v.1.12,2013-02-01 05:20:00,
2013-01-31 22:25:00,36.1,33.7,30.08,North,0,0.0,0.0,91,0.00,,,0.00,Wunderground v.1.12,2013-02-01 05:25:00,
2013-01-31 22:30:00,36.7,34.3,30.07,ESE,115,0.0,0.0,91,0.00,,,0.00,Wunderground v.1.12,2013-02-01 05:30:00,
2013-01-31 22:35:00,36.5,33.8,30.08,North,0,0.0,0.0,90,0.00,,,0.00,Wunderground v.1.12,2013-02-01 05:35:00,
2013-01-31 22:40:00,36.4,34.0,30.07,North,0,0.0,0.0,91,0.00,,,0.00,Wunderground v.1.12,2013-02-01 05:40:00,
2013-01-31 22:50:00,36.4,34.6,30.08,North,0,0.0,0.0,93,0.00,,,0.00,Wunderground v.1.12,2013-02-01 05:50:00,
2013-01-31 22:55:00,36.4,34.6,30.08,North,0,0.0,0.0,93,0.00,,,0.00,Wunderground v.1.12,2013-02-01 05:55:00,
2013-01-31 23:00:00,36.3,34.7,30.08,North,0,0.0,0.0,94,0.00,,,0.00,Wunderground v.1.12,2013-02-01 06:00:00,
2013-01-31 23:05:00,36.5,34.9,30.08,North,0,0.0,1.0,94,0.00,,,0.00,Wunderground v.1.12,2013-02-01 06:05:00,
2013-01-31 23:10:00,36.0,34.4,30.08,North,0,0.0,0.0,94,0.00,,,0.00,Wunderground v.1.12,2013-02-01 06:10:00,
2013-01-31 23:20:00,35.9,34.3,30.08,North,0,0.0,0.0,94,0.00,,,0.00,Wunderground v.1.12,2013-02-01 06:20:00,
2013-01-31 23:25:00,36.2,34.6,30.07,North,0,0.0,0.0,94,0.00,,,0.00,Wunderground v.1.12,2013-02-01 06:25:00,
2013-01-31 23:30:00,36.1,34.8,30.08,North,0,0.0,0.0,95,0.00,,,0.00,Wunderground v.1.12,2013-02-01 06:30:00,
2013-01-31 23:35:00,36.1,34.5,30.08,N/A,-737280,0.0,0.0,94,0.00,,,0.00,Wunderground v.1.12,2013-02-01 06:35:00,
2013-01-31 23:40:00,35.9,34.6,30.07,North,0,0.0,0.0,95,0.00,,,0.00,Wunderground v.1.12,2013-02-01 06:40:00,
2013-01-31 23:45:00,35.8,34.5,30.07,North,0,0.0,0.0,95,0.00,,,0.00,Wunderground v.1.12,2013-02-01 06:45:00,
2013-01-31 23:55:00,35.7,34.4,30.07,North,0,0.0,0.0,95,0.00,,,0.00,Wunderground v.1.12,2013-02-01 06:55:00,